sensor_id;sensor_type;location;lat;lon;timestamp;P1;durP1;ratioP1;P2;durP2;ratioP2
16804;SDS011;8520;50.102;20.010;2023-03-03T00:01:04;87.77;;;78.67;;
16804;SDS011;8520;50.102;20.010;2023-03-03T00:03:32;86.73;;;77.53;;
16804;SDS011;8520;50.102;20.010;2023-03-03T00:06:01;85.07;;;76.17;;
16804;SDS011;8520;50.102;20.010;2023-03-03T00:08:32;81.47;;;73.13;;
16804;SDS011;8520;50.102;20.010;2023-03-03T00:11:00;82.40;;;73.50;;
16804;SDS011;8520;50.102;20.010;2023-03-03T00:13:30;83.40;;;74.30;;
16804;SDS011;8520;50.102;20.010;2023-03-03T00:16:09;81.77;;;73.23;;
16804;SDS011;8520;50.102;20.010;2023-03-03T00:18:41;84.43;;;75.73;;
16804;SDS011;8520;50.102;20.010;2023-03-03T00:21:17;83.77;;;75.07;;
16804;SDS011;8520;50.102;20.010;2023-03-03T00:23:52;82.20;;;73.80;;
16804;SDS011;8520;50.102;20.010;2023-03-03T00:26:21;77.53;;;69.53;;
16804;SDS011;8520;50.102;20.010;2023-03-03T00:28:53;81.33;;;72.67;;
16804;SDS011;8520;50.102;20.010;2023-03-03T00:31:24;80.27;;;71.97;;
16804;SDS011;8520;50.102;20.010;2023-03-03T00:33:56;81.60;;;73.00;;
16804;SDS011;8520;50.102;20.010;2023-03-03T00:36:30;77.67;;;69.77;;
16804;SDS011;8520;50.102;20.010;2023-03-03T00:39:12;79.83;;;71.53;;
16804;SDS011;8520;50.102;20.010;2023-03-03T00:41:46;79.37;;;71.27;;
16804;SDS011;8520;50.102;20.010;2023-03-03T00:52:52;83.03;;;74.03;;
16804;SDS011;8520;50.102;20.010;2023-03-03T00:55:29;84.13;;;75.30;;
16804;SDS011;8520;50.102;20.010;2023-03-03T00:57:58;81.10;;;72.70;;
16804;SDS011;8520;50.102;20.010;2023-03-03T01:00:31;82.30;;;73.53;;
16804;SDS011;8520;50.102;20.010;2023-03-03T01:03:02;80.80;;;72.27;;
16804;SDS011;8520;50.102;20.010;2023-03-03T01:05:32;82.43;;;74.07;;
16804;SDS011;8520;50.102;20.010;2023-03-03T01:08:00;81.40;;;73.10;;
16804;SDS011;8520;50.102;20.010;2023-03-03T01:10:31;84.93;;;75.93;;
16804;SDS011;8520;50.102;20.010;2023-03-03T01:13:02;80.53;;;72.30;;
16804;SDS011;8520;50.102;20.010;2023-03-03T01:15:31;80.63;;;72.43;;
16804;SDS011;8520;50.102;20.010;2023-03-03T01:17:59;81.37;;;72.87;;
16804;SDS011;8520;50.102;20.010;2023-03-03T01:20:28;83.73;;;74.90;;
16804;SDS011;8520;50.102;20.010;2023-03-03T01:22:56;80.33;;;71.97;;
16804;SDS011;8520;50.102;20.010;2023-03-03T01:25:24;84.37;;;75.53;;
16804;SDS011;8520;50.102;20.010;2023-03-03T01:27:53;83.70;;;75.10;;
16804;SDS011;8520;50.102;20.010;2023-03-03T01:30:22;84.50;;;75.83;;
16804;SDS011;8520;50.102;20.010;2023-03-03T01:32:51;78.20;;;70.50;;
16804;SDS011;8520;50.102;20.010;2023-03-03T01:35:20;80.87;;;72.43;;
16804;SDS011;8520;50.102;20.010;2023-03-03T01:37:48;82.77;;;74.03;;
16804;SDS011;8520;50.102;20.010;2023-03-03T01:40:17;80.23;;;72.03;;
16804;SDS011;8520;50.102;20.010;2023-03-03T01:42:49;78.30;;;70.57;;
16804;SDS011;8520;50.102;20.010;2023-03-03T01:45:20;80.90;;;72.57;;
16804;SDS011;8520;50.102;20.010;2023-03-03T01:47:53;84.20;;;75.47;;
16804;SDS011;8520;50.102;20.010;2023-03-03T01:50:28;81.73;;;73.43;;
16804;SDS011;8520;50.102;20.010;2023-03-03T01:53:00;81.00;;;72.77;;
16804;SDS011;8520;50.102;20.010;2023-03-03T01:55:32;81.03;;;72.63;;
16804;SDS011;8520;50.102;20.010;2023-03-03T01:58:04;81.27;;;72.73;;
16804;SDS011;8520;50.102;20.010;2023-03-03T02:00:37;79.57;;;71.17;;
16804;SDS011;8520;50.102;20.010;2023-03-03T02:03:07;81.47;;;73.00;;
16804;SDS011;8520;50.102;20.010;2023-03-03T02:05:36;82.07;;;73.50;;
16804;SDS011;8520;50.102;20.010;2023-03-03T02:08:06;84.73;;;76.07;;
16804;SDS011;8520;50.102;20.010;2023-03-03T02:10:38;86.63;;;77.27;;
16804;SDS011;8520;50.102;20.010;2023-03-03T02:13:07;86.60;;;77.60;;
16804;SDS011;8520;50.102;20.010;2023-03-03T02:15:36;87.30;;;78.07;;
16804;SDS011;8520;50.102;20.010;2023-03-03T02:18:05;88.47;;;79.27;;
16804;SDS011;8520;50.102;20.010;2023-03-03T02:20:40;86.40;;;77.43;;
16804;SDS011;8520;50.102;20.010;2023-03-03T02:23:19;88.13;;;78.83;;
16804;SDS011;8520;50.102;20.010;2023-03-03T02:25:52;87.13;;;77.83;;
16804;SDS011;8520;50.102;20.010;2023-03-03T02:28:44;88.33;;;78.67;;
16804;SDS011;8520;50.102;20.010;2023-03-03T02:31:13;86.67;;;77.37;;
16804;SDS011;8520;50.102;20.010;2023-03-03T02:33:44;90.93;;;81.13;;
16804;SDS011;8520;50.102;20.010;2023-03-03T02:36:14;88.27;;;79.20;;
16804;SDS011;8520;50.102;20.010;2023-03-03T02:38:45;89.73;;;80.27;;
16804;SDS011;8520;50.102;20.010;2023-03-03T02:41:22;88.53;;;79.57;;
16804;SDS011;8520;50.102;20.010;2023-03-03T02:44:00;90.57;;;81.17;;
16804;SDS011;8520;50.102;20.010;2023-03-03T02:46:31;91.77;;;82.33;;
16804;SDS011;8520;50.102;20.010;2023-03-03T02:49:01;90.73;;;81.03;;
16804;SDS011;8520;50.102;20.010;2023-03-03T02:51:31;90.23;;;80.93;;
16804;SDS011;8520;50.102;20.010;2023-03-03T02:54:00;87.07;;;77.93;;
16804;SDS011;8520;50.102;20.010;2023-03-03T02:56:30;89.73;;;80.53;;
16804;SDS011;8520;50.102;20.010;2023-03-03T02:59:00;88.23;;;79.10;;
16804;SDS011;8520;50.102;20.010;2023-03-03T03:01:32;88.57;;;79.20;;
16804;SDS011;8520;50.102;20.010;2023-03-03T03:04:06;90.70;;;81.30;;
16804;SDS011;8520;50.102;20.010;2023-03-03T03:06:41;88.43;;;79.07;;
16804;SDS011;8520;50.102;20.010;2023-03-03T03:09:11;93.73;;;84.03;;
16804;SDS011;8520;50.102;20.010;2023-03-03T03:11:39;97.20;;;86.60;;
16804;SDS011;8520;50.102;20.010;2023-03-03T03:14:10;93.10;;;83.70;;
16804;SDS011;8520;50.102;20.010;2023-03-03T03:16:41;91.13;;;81.77;;
16804;SDS011;8520;50.102;20.010;2023-03-03T03:19:09;92.13;;;82.73;;
16804;SDS011;8520;50.102;20.010;2023-03-03T03:21:38;92.47;;;82.87;;
16804;SDS011;8520;50.102;20.010;2023-03-03T03:24:08;92.97;;;83.27;;
16804;SDS011;8520;50.102;20.010;2023-03-03T03:26:40;95.87;;;85.67;;
16804;SDS011;8520;50.102;20.010;2023-03-03T03:29:10;94.17;;;84.47;;
16804;SDS011;8520;50.102;20.010;2023-03-03T03:31:38;94.63;;;84.43;;
16804;SDS011;8520;50.102;20.010;2023-03-03T03:34:09;93.90;;;84.17;;
16804;SDS011;8520;50.102;20.010;2023-03-03T03:36:37;95.60;;;85.67;;
16804;SDS011;8520;50.102;20.010;2023-03-03T03:39:06;94.57;;;85.13;;
16804;SDS011;8520;50.102;20.010;2023-03-03T03:41:39;96.67;;;86.63;;
16804;SDS011;8520;50.102;20.010;2023-03-03T03:44:09;96.97;;;86.83;;
16804;SDS011;8520;50.102;20.010;2023-03-03T03:46:37;98.60;;;88.50;;
16804;SDS011;8520;50.102;20.010;2023-03-03T03:49:06;96.37;;;86.37;;
16804;SDS011;8520;50.102;20.010;2023-03-03T03:51:34;100.00;;;89.63;;
16804;SDS011;8520;50.102;20.010;2023-03-03T03:54:09;102.33;;;91.60;;
16804;SDS011;8520;50.102;20.010;2023-03-03T03:56:38;98.40;;;88.13;;
16804;SDS011;8520;50.102;20.010;2023-03-03T03:59:06;100.63;;;90.17;;
16804;SDS011;8520;50.102;20.010;2023-03-03T04:01:37;96.67;;;86.73;;
16804;SDS011;8520;50.102;20.010;2023-03-03T04:04:05;96.13;;;86.23;;
16804;SDS011;8520;50.102;20.010;2023-03-03T04:06:34;94.70;;;84.77;;
16804;SDS011;8520;50.102;20.010;2023-03-03T04:09:04;95.93;;;85.87;;
16804;SDS011;8520;50.102;20.010;2023-03-03T04:11:32;97.43;;;87.33;;
16804;SDS011;8520;50.102;20.010;2023-03-03T04:14:03;95.97;;;85.93;;
16804;SDS011;8520;50.102;20.010;2023-03-03T04:16:33;94.27;;;84.57;;
16804;SDS011;8520;50.102;20.010;2023-03-03T04:19:03;94.37;;;84.50;;
16804;SDS011;8520;50.102;20.010;2023-03-03T04:21:34;94.20;;;84.60;;
16804;SDS011;8520;50.102;20.010;2023-03-03T04:24:02;97.00;;;86.87;;
16804;SDS011;8520;50.102;20.010;2023-03-03T04:26:32;99.23;;;88.83;;
16804;SDS011;8520;50.102;20.010;2023-03-03T04:29:02;100.90;;;90.33;;
16804;SDS011;8520;50.102;20.010;2023-03-03T04:31:30;100.50;;;89.90;;
16804;SDS011;8520;50.102;20.010;2023-03-03T04:33:59;96.17;;;86.33;;
16804;SDS011;8520;50.102;20.010;2023-03-03T04:36:29;99.60;;;89.17;;
16804;SDS011;8520;50.102;20.010;2023-03-03T04:38:58;101.43;;;90.87;;
16804;SDS011;8520;50.102;20.010;2023-03-03T04:41:26;101.43;;;90.97;;
16804;SDS011;8520;50.102;20.010;2023-03-03T04:43:55;100.87;;;90.07;;
16804;SDS011;8520;50.102;20.010;2023-03-03T04:46:23;102.63;;;91.70;;
16804;SDS011;8520;50.102;20.010;2023-03-03T04:48:51;100.03;;;89.60;;
16804;SDS011;8520;50.102;20.010;2023-03-03T04:51:20;100.43;;;90.10;;
16804;SDS011;8520;50.102;20.010;2023-03-03T04:53:49;96.73;;;86.67;;
16804;SDS011;8520;50.102;20.010;2023-03-03T04:56:17;101.03;;;90.70;;
16804;SDS011;8520;50.102;20.010;2023-03-03T04:58:47;102.27;;;91.47;;
16804;SDS011;8520;50.102;20.010;2023-03-03T05:01:16;101.20;;;90.77;;
16804;SDS011;8520;50.102;20.010;2023-03-03T05:03:45;103.33;;;92.13;;
16804;SDS011;8520;50.102;20.010;2023-03-03T05:06:13;104.90;;;93.80;;
16804;SDS011;8520;50.102;20.010;2023-03-03T05:08:44;97.90;;;88.13;;
16804;SDS011;8520;50.102;20.010;2023-03-03T05:11:14;101.10;;;90.80;;
16804;SDS011;8520;50.102;20.010;2023-03-03T05:13:42;102.70;;;92.03;;
16804;SDS011;8520;50.102;20.010;2023-03-03T05:16:10;98.47;;;88.40;;
16804;SDS011;8520;50.102;20.010;2023-03-03T05:18:38;96.50;;;87.00;;
16804;SDS011;8520;50.102;20.010;2023-03-03T05:21:07;97.80;;;87.83;;
16804;SDS011;8520;50.102;20.010;2023-03-03T05:23:35;98.40;;;88.30;;
16804;SDS011;8520;50.102;20.010;2023-03-03T05:26:03;97.10;;;87.07;;
16804;SDS011;8520;50.102;20.010;2023-03-03T05:28:33;99.07;;;89.13;;
16804;SDS011;8520;50.102;20.010;2023-03-03T05:31:01;98.43;;;88.30;;
16804;SDS011;8520;50.102;20.010;2023-03-03T05:33:29;100.03;;;89.93;;
16804;SDS011;8520;50.102;20.010;2023-03-03T05:35:58;98.00;;;87.67;;
16804;SDS011;8520;50.102;20.010;2023-03-03T05:38:26;100.50;;;89.90;;
16804;SDS011;8520;50.102;20.010;2023-03-03T05:40:54;97.40;;;87.63;;
16804;SDS011;8520;50.102;20.010;2023-03-03T05:43:26;95.67;;;85.70;;
16804;SDS011;8520;50.102;20.010;2023-03-03T05:45:56;93.77;;;84.43;;
16804;SDS011;8520;50.102;20.010;2023-03-03T05:48:24;96.37;;;86.63;;
16804;SDS011;8520;50.102;20.010;2023-03-03T05:50:53;92.07;;;82.77;;
16804;SDS011;8520;50.102;20.010;2023-03-03T05:53:21;91.80;;;82.40;;
16804;SDS011;8520;50.102;20.010;2023-03-03T05:55:49;91.90;;;82.77;;
16804;SDS011;8520;50.102;20.010;2023-03-03T05:58:17;92.40;;;82.97;;
16804;SDS011;8520;50.102;20.010;2023-03-03T06:00:46;88.90;;;80.00;;
16804;SDS011;8520;50.102;20.010;2023-03-03T06:03:15;84.80;;;76.53;;
16804;SDS011;8520;50.102;20.010;2023-03-03T06:05:43;84.13;;;75.87;;
16804;SDS011;8520;50.102;20.010;2023-03-03T06:08:12;86.27;;;77.30;;
16804;SDS011;8520;50.102;20.010;2023-03-03T06:10:40;81.90;;;73.77;;
16804;SDS011;8520;50.102;20.010;2023-03-03T06:13:10;80.03;;;72.13;;
16804;SDS011;8520;50.102;20.010;2023-03-03T06:15:38;75.10;;;67.80;;
16804;SDS011;8520;50.102;20.010;2023-03-03T06:18:07;75.00;;;67.63;;
16804;SDS011;8520;50.102;20.010;2023-03-03T06:20:37;75.13;;;67.73;;
16804;SDS011;8520;50.102;20.010;2023-03-03T06:23:05;73.03;;;65.83;;
16804;SDS011;8520;50.102;20.010;2023-03-03T06:25:33;68.63;;;61.93;;
16804;SDS011;8520;50.102;20.010;2023-03-03T06:28:01;68.50;;;61.63;;
16804;SDS011;8520;50.102;20.010;2023-03-03T06:30:30;67.03;;;60.23;;
16804;SDS011;8520;50.102;20.010;2023-03-03T06:32:58;69.17;;;62.07;;
16804;SDS011;8520;50.102;20.010;2023-03-03T06:35:28;67.93;;;61.00;;
16804;SDS011;8520;50.102;20.010;2023-03-03T06:37:58;65.50;;;58.80;;
16804;SDS011;8520;50.102;20.010;2023-03-03T06:40:26;66.83;;;60.07;;
16804;SDS011;8520;50.102;20.010;2023-03-03T06:42:54;67.63;;;60.70;;
16804;SDS011;8520;50.102;20.010;2023-03-03T06:45:22;67.17;;;60.27;;
16804;SDS011;8520;50.102;20.010;2023-03-03T06:47:50;68.43;;;61.27;;
16804;SDS011;8520;50.102;20.010;2023-03-03T06:50:19;71.67;;;63.87;;
16804;SDS011;8520;50.102;20.010;2023-03-03T06:52:47;69.63;;;62.40;;
16804;SDS011;8520;50.102;20.010;2023-03-03T06:55:20;69.53;;;62.27;;
16804;SDS011;8520;50.102;20.010;2023-03-03T06:57:49;70.80;;;63.40;;
16804;SDS011;8520;50.102;20.010;2023-03-03T07:00:22;71.60;;;62.67;;
16804;SDS011;8520;50.102;20.010;2023-03-03T07:02:57;69.40;;;62.17;;
16804;SDS011;8520;50.102;20.010;2023-03-03T07:05:27;71.23;;;63.03;;
16804;SDS011;8520;50.102;20.010;2023-03-03T07:07:56;72.07;;;64.47;;
16804;SDS011;8520;50.102;20.010;2023-03-03T07:10:26;76.13;;;68.20;;
16804;SDS011;8520;50.102;20.010;2023-03-03T07:12:55;79.13;;;70.83;;
16804;SDS011;8520;50.102;20.010;2023-03-03T07:15:43;79.80;;;71.30;;
16804;SDS011;8520;50.102;20.010;2023-03-03T07:18:20;79.33;;;71.00;;
16804;SDS011;8520;50.102;20.010;2023-03-03T07:20:55;82.30;;;73.77;;
16804;SDS011;8520;50.102;20.010;2023-03-03T07:23:24;81.37;;;72.27;;
16804;SDS011;8520;50.102;20.010;2023-03-03T07:25:56;85.67;;;76.77;;
16804;SDS011;8520;50.102;20.010;2023-03-03T07:28:25;91.80;;;81.70;;
16804;SDS011;8520;50.102;20.010;2023-03-03T07:30:55;90.47;;;80.80;;
16804;SDS011;8520;50.102;20.010;2023-03-03T07:33:25;87.47;;;78.23;;
16804;SDS011;8520;50.102;20.010;2023-03-03T07:35:55;86.13;;;76.73;;
16804;SDS011;8520;50.102;20.010;2023-03-03T07:38:28;87.10;;;77.73;;
16804;SDS011;8520;50.102;20.010;2023-03-03T07:41:00;89.93;;;80.23;;
16804;SDS011;8520;50.102;20.010;2023-03-03T07:43:33;87.87;;;77.20;;
16804;SDS011;8520;50.102;20.010;2023-03-03T07:46:22;83.93;;;74.93;;
16804;SDS011;8520;50.102;20.010;2023-03-03T07:48:55;84.40;;;75.33;;
16804;SDS011;8520;50.102;20.010;2023-03-03T07:51:25;85.50;;;76.30;;
16804;SDS011;8520;50.102;20.010;2023-03-03T07:53:59;85.10;;;76.10;;
16804;SDS011;8520;50.102;20.010;2023-03-03T07:56:43;83.50;;;74.60;;
16804;SDS011;8520;50.102;20.010;2023-03-03T07:59:15;84.40;;;75.33;;
16804;SDS011;8520;50.102;20.010;2023-03-03T08:01:48;86.27;;;76.87;;
16804;SDS011;8520;50.102;20.010;2023-03-03T08:04:19;85.73;;;75.33;;
16804;SDS011;8520;50.102;20.010;2023-03-03T08:06:51;84.83;;;75.40;;
16804;SDS011;8520;50.102;20.010;2023-03-03T08:09:38;91.63;;;80.97;;
16804;SDS011;8520;50.102;20.010;2023-03-03T08:15:21;87.40;;;76.60;;
16804;SDS011;8520;50.102;20.010;2023-03-03T08:17:51;87.20;;;77.37;;
16804;SDS011;8520;50.102;20.010;2023-03-03T08:23:18;86.57;;;77.10;;
16804;SDS011;8520;50.102;20.010;2023-03-03T08:25:47;88.20;;;77.23;;
16804;SDS011;8520;50.102;20.010;2023-03-03T08:28:18;80.10;;;71.37;;
16804;SDS011;8520;50.102;20.010;2023-03-03T08:30:47;81.83;;;69.37;;
16804;SDS011;8520;50.102;20.010;2023-03-03T08:33:16;77.53;;;69.07;;
16804;SDS011;8520;50.102;20.010;2023-03-03T08:35:44;76.10;;;67.47;;
16804;SDS011;8520;50.102;20.010;2023-03-03T08:38:14;80.93;;;70.33;;
16804;SDS011;8520;50.102;20.010;2023-03-03T08:40:44;77.37;;;67.87;;
16804;SDS011;8520;50.102;20.010;2023-03-03T08:43:12;76.40;;;68.03;;
16804;SDS011;8520;50.102;20.010;2023-03-03T08:45:44;76.07;;;67.87;;
16804;SDS011;8520;50.102;20.010;2023-03-03T08:48:13;78.03;;;69.53;;
16804;SDS011;8520;50.102;20.010;2023-03-03T08:50:42;75.00;;;66.90;;
16804;SDS011;8520;50.102;20.010;2023-03-03T08:53:10;79.90;;;71.27;;
16804;SDS011;8520;50.102;20.010;2023-03-03T08:55:39;82.60;;;73.60;;
16804;SDS011;8520;50.102;20.010;2023-03-03T08:58:08;87.60;;;75.90;;
16804;SDS011;8520;50.102;20.010;2023-03-03T09:00:37;84.03;;;73.13;;
16804;SDS011;8520;50.102;20.010;2023-03-03T09:03:06;85.67;;;76.17;;
16804;SDS011;8520;50.102;20.010;2023-03-03T09:05:35;90.87;;;77.03;;
16804;SDS011;8520;50.102;20.010;2023-03-03T09:08:05;89.40;;;73.67;;
16804;SDS011;8520;50.102;20.010;2023-03-03T09:10:34;86.87;;;75.60;;
16804;SDS011;8520;50.102;20.010;2023-03-03T09:13:03;85.90;;;74.03;;
16804;SDS011;8520;50.102;20.010;2023-03-03T09:15:37;87.00;;;74.43;;
16804;SDS011;8520;50.102;20.010;2023-03-03T09:18:12;82.23;;;71.83;;
16804;SDS011;8520;50.102;20.010;2023-03-03T09:20:42;81.10;;;71.87;;
16804;SDS011;8520;50.102;20.010;2023-03-03T09:23:24;85.00;;;74.50;;
16804;SDS011;8520;50.102;20.010;2023-03-03T09:28:54;83.27;;;71.77;;
16804;SDS011;8520;50.102;20.010;2023-03-03T09:31:29;83.93;;;71.93;;
16804;SDS011;8520;50.102;20.010;2023-03-03T09:34:09;88.33;;;72.43;;
16804;SDS011;8520;50.102;20.010;2023-03-03T09:36:42;85.73;;;71.73;;
16804;SDS011;8520;50.102;20.010;2023-03-03T09:39:12;85.47;;;74.03;;
16804;SDS011;8520;50.102;20.010;2023-03-03T09:47:46;90.43;;;74.77;;
16804;SDS011;8520;50.102;20.010;2023-03-03T09:50:27;88.10;;;76.60;;
16804;SDS011;8520;50.102;20.010;2023-03-03T09:53:06;90.40;;;80.13;;
16804;SDS011;8520;50.102;20.010;2023-03-03T09:55:47;90.40;;;77.77;;
16804;SDS011;8520;50.102;20.010;2023-03-03T10:01:27;90.43;;;75.30;;
16804;SDS011;8520;50.102;20.010;2023-03-03T10:04:22;92.10;;;77.13;;
16804;SDS011;8520;50.102;20.010;2023-03-03T10:07:08;95.13;;;80.87;;
16804;SDS011;8520;50.102;20.010;2023-03-03T10:09:48;91.10;;;81.07;;
16804;SDS011;8520;50.102;20.010;2023-03-03T10:12:30;81.20;;;70.90;;
16804;SDS011;8520;50.102;20.010;2023-03-03T10:15:12;77.47;;;68.13;;
16804;SDS011;8520;50.102;20.010;2023-03-03T10:17:49;83.47;;;74.33;;
16804;SDS011;8520;50.102;20.010;2023-03-03T10:20:22;83.03;;;73.50;;
16804;SDS011;8520;50.102;20.010;2023-03-03T10:23:23;85.10;;;71.67;;
16804;SDS011;8520;50.102;20.010;2023-03-03T10:26:08;86.70;;;77.03;;
16804;SDS011;8520;50.102;20.010;2023-03-03T10:31:50;89.87;;;79.30;;
16804;SDS011;8520;50.102;20.010;2023-03-03T10:34:36;88.07;;;78.47;;
16804;SDS011;8520;50.102;20.010;2023-03-03T10:37:17;86.73;;;77.33;;
16804;SDS011;8520;50.102;20.010;2023-03-03T10:40:05;87.67;;;77.90;;
16804;SDS011;8520;50.102;20.010;2023-03-03T10:42:47;90.43;;;80.33;;
16804;SDS011;8520;50.102;20.010;2023-03-03T10:45:49;89.20;;;76.83;;
16804;SDS011;8520;50.102;20.010;2023-03-03T10:51:31;97.23;;;83.23;;
16804;SDS011;8520;50.102;20.010;2023-03-03T10:54:11;92.33;;;77.93;;
16804;SDS011;8520;50.102;20.010;2023-03-03T10:56:58;79.27;;;70.63;;
16804;SDS011;8520;50.102;20.010;2023-03-03T10:59:40;80.27;;;66.53;;
16804;SDS011;8520;50.102;20.010;2023-03-03T11:02:21;69.03;;;57.77;;
16804;SDS011;8520;50.102;20.010;2023-03-03T11:05:01;66.70;;;57.93;;
16804;SDS011;8520;50.102;20.010;2023-03-03T11:07:43;68.23;;;59.50;;
16804;SDS011;8520;50.102;20.010;2023-03-03T11:10:18;67.90;;;57.37;;
16804;SDS011;8520;50.102;20.010;2023-03-03T11:13:02;49.80;;;43.77;;
16804;SDS011;8520;50.102;20.010;2023-03-03T11:15:43;46.83;;;40.23;;
16804;SDS011;8520;50.102;20.010;2023-03-03T11:18:23;46.23;;;41.10;;
16804;SDS011;8520;50.102;20.010;2023-03-03T11:21:01;47.53;;;41.90;;
16804;SDS011;8520;50.102;20.010;2023-03-03T11:23:51;49.77;;;42.20;;
16804;SDS011;8520;50.102;20.010;2023-03-03T11:26:32;47.33;;;41.67;;
16804;SDS011;8520;50.102;20.010;2023-03-03T11:29:31;46.53;;;41.50;;
16804;SDS011;8520;50.102;20.010;2023-03-03T11:32:14;50.43;;;42.47;;
16804;SDS011;8520;50.102;20.010;2023-03-03T11:34:51;51.13;;;43.03;;
16804;SDS011;8520;50.102;20.010;2023-03-03T11:37:27;49.77;;;40.60;;
16804;SDS011;8520;50.102;20.010;2023-03-03T11:40:09;47.47;;;41.07;;
16804;SDS011;8520;50.102;20.010;2023-03-03T11:42:46;49.97;;;40.73;;
16804;SDS011;8520;50.102;20.010;2023-03-03T11:45:30;43.83;;;38.07;;
16804;SDS011;8520;50.102;20.010;2023-03-03T11:48:06;46.23;;;39.33;;
16804;SDS011;8520;50.102;20.010;2023-03-03T11:50:42;49.53;;;40.90;;
16804;SDS011;8520;50.102;20.010;2023-03-03T11:53:24;51.50;;;42.07;;
16804;SDS011;8520;50.102;20.010;2023-03-03T11:55:59;51.23;;;41.67;;
16804;SDS011;8520;50.102;20.010;2023-03-03T11:58:35;48.37;;;39.20;;
16804;SDS011;8520;50.102;20.010;2023-03-03T12:01:13;51.07;;;42.10;;
16804;SDS011;8520;50.102;20.010;2023-03-03T12:03:47;54.00;;;40.13;;
16804;SDS011;8520;50.102;20.010;2023-03-03T12:06:22;51.20;;;41.37;;
16804;SDS011;8520;50.102;20.010;2023-03-03T12:09:00;54.70;;;42.07;;
16804;SDS011;8520;50.102;20.010;2023-03-03T12:11:38;53.30;;;42.23;;
16804;SDS011;8520;50.102;20.010;2023-03-03T12:14:17;57.93;;;45.47;;
16804;SDS011;8520;50.102;20.010;2023-03-03T12:17:02;67.30;;;46.33;;
16804;SDS011;8520;50.102;20.010;2023-03-03T12:19:34;62.27;;;46.03;;
16804;SDS011;8520;50.102;20.010;2023-03-03T12:22:26;62.23;;;43.77;;
16804;SDS011;8520;50.102;20.010;2023-03-03T12:27:49;58.63;;;45.07;;
16804;SDS011;8520;50.102;20.010;2023-03-03T12:30:26;59.17;;;44.07;;
16804;SDS011;8520;50.102;20.010;2023-03-03T12:33:18;60.37;;;46.20;;
16804;SDS011;8520;50.102;20.010;2023-03-03T12:35:56;55.73;;;44.50;;
16804;SDS011;8520;50.102;20.010;2023-03-03T12:38:34;58.50;;;45.23;;
16804;SDS011;8520;50.102;20.010;2023-03-03T12:41:09;62.97;;;47.30;;
16804;SDS011;8520;50.102;20.010;2023-03-03T12:43:54;65.30;;;47.43;;
16804;SDS011;8520;50.102;20.010;2023-03-03T12:46:27;62.10;;;45.27;;
16804;SDS011;8520;50.102;20.010;2023-03-03T12:49:07;64.10;;;45.83;;
16804;SDS011;8520;50.102;20.010;2023-03-03T12:51:38;61.17;;;45.10;;
16804;SDS011;8520;50.102;20.010;2023-03-03T12:57:20;64.80;;;48.23;;
16804;SDS011;8520;50.102;20.010;2023-03-03T13:00:02;66.47;;;47.50;;
16804;SDS011;8520;50.102;20.010;2023-03-03T13:02:48;64.83;;;47.70;;
16804;SDS011;8520;50.102;20.010;2023-03-03T13:05:28;58.97;;;45.40;;
16804;SDS011;8520;50.102;20.010;2023-03-03T13:08:13;56.57;;;40.60;;
16804;SDS011;8520;50.102;20.010;2023-03-03T13:10:58;54.47;;;42.97;;
16804;SDS011;8520;50.102;20.010;2023-03-03T13:13:34;51.87;;;38.87;;
16804;SDS011;8520;50.102;20.010;2023-03-03T13:16:11;53.43;;;40.37;;
16804;SDS011;8520;50.102;20.010;2023-03-03T13:18:48;51.23;;;39.23;;
16804;SDS011;8520;50.102;20.010;2023-03-03T13:21:24;50.90;;;40.20;;
16804;SDS011;8520;50.102;20.010;2023-03-03T13:23:58;50.97;;;38.73;;
16804;SDS011;8520;50.102;20.010;2023-03-03T13:26:33;47.83;;;37.93;;
16804;SDS011;8520;50.102;20.010;2023-03-03T13:29:07;42.67;;;36.40;;
16804;SDS011;8520;50.102;20.010;2023-03-03T13:31:44;48.67;;;37.73;;
16804;SDS011;8520;50.102;20.010;2023-03-03T13:34:19;46.00;;;36.93;;
16804;SDS011;8520;50.102;20.010;2023-03-03T13:37:00;41.10;;;35.23;;
16804;SDS011;8520;50.102;20.010;2023-03-03T13:39:35;45.80;;;37.50;;
16804;SDS011;8520;50.102;20.010;2023-03-03T13:42:10;46.13;;;37.47;;
16804;SDS011;8520;50.102;20.010;2023-03-03T13:44:46;45.10;;;37.23;;
16804;SDS011;8520;50.102;20.010;2023-03-03T13:47:18;41.73;;;35.13;;
16804;SDS011;8520;50.102;20.010;2023-03-03T13:49:59;43.27;;;35.70;;
16804;SDS011;8520;50.102;20.010;2023-03-03T13:52:43;43.23;;;35.20;;
16804;SDS011;8520;50.102;20.010;2023-03-03T13:55:21;39.60;;;33.93;;
16804;SDS011;8520;50.102;20.010;2023-03-03T13:57:59;46.17;;;37.83;;
16804;SDS011;8520;50.102;20.010;2023-03-03T14:00:35;44.63;;;36.47;;
16804;SDS011;8520;50.102;20.010;2023-03-03T14:03:20;41.13;;;34.00;;
16804;SDS011;8520;50.102;20.010;2023-03-03T14:06:07;46.60;;;38.77;;
16804;SDS011;8520;50.102;20.010;2023-03-03T14:08:54;44.73;;;35.90;;
16804;SDS011;8520;50.102;20.010;2023-03-03T14:11:48;40.73;;;35.37;;
16804;SDS011;8520;50.102;20.010;2023-03-03T14:14:24;44.60;;;37.13;;
16804;SDS011;8520;50.102;20.010;2023-03-03T14:17:01;43.40;;;34.93;;
16804;SDS011;8520;50.102;20.010;2023-03-03T14:19:31;40.30;;;33.07;;
16804;SDS011;8520;50.102;20.010;2023-03-03T14:22:05;41.70;;;34.27;;
16804;SDS011;8520;50.102;20.010;2023-03-03T14:25:03;41.67;;;34.10;;
16804;SDS011;8520;50.102;20.010;2023-03-03T14:27:34;41.00;;;34.00;;
16804;SDS011;8520;50.102;20.010;2023-03-03T14:33:04;39.93;;;32.83;;
16804;SDS011;8520;50.102;20.010;2023-03-03T14:35:43;40.40;;;34.20;;
16804;SDS011;8520;50.102;20.010;2023-03-03T14:38:17;39.03;;;32.33;;
16804;SDS011;8520;50.102;20.010;2023-03-03T14:41:03;39.73;;;33.97;;
16804;SDS011;8520;50.102;20.010;2023-03-03T14:43:39;40.13;;;34.17;;
16804;SDS011;8520;50.102;20.010;2023-03-03T14:49:03;35.50;;;31.57;;
16804;SDS011;8520;50.102;20.010;2023-03-03T14:51:37;37.47;;;33.37;;
16804;SDS011;8520;50.102;20.010;2023-03-03T14:54:12;41.27;;;33.33;;
16804;SDS011;8520;50.102;20.010;2023-03-03T14:59:39;40.37;;;33.60;;
16804;SDS011;8520;50.102;20.010;2023-03-03T15:02:30;39.07;;;33.93;;
16804;SDS011;8520;50.102;20.010;2023-03-03T15:05:12;38.83;;;32.00;;
16804;SDS011;8520;50.102;20.010;2023-03-03T15:07:51;37.10;;;31.77;;
16804;SDS011;8520;50.102;20.010;2023-03-03T15:10:26;38.27;;;32.70;;
16804;SDS011;8520;50.102;20.010;2023-03-03T15:13:11;38.57;;;32.57;;
16804;SDS011;8520;50.102;20.010;2023-03-03T15:16:04;42.43;;;33.93;;
16804;SDS011;8520;50.102;20.010;2023-03-03T15:21:43;39.87;;;32.80;;
16804;SDS011;8520;50.102;20.010;2023-03-03T15:24:19;41.13;;;34.50;;
16804;SDS011;8520;50.102;20.010;2023-03-03T15:26:53;41.13;;;34.80;;
16804;SDS011;8520;50.102;20.010;2023-03-03T15:29:28;41.13;;;35.30;;
16804;SDS011;8520;50.102;20.010;2023-03-03T15:32:05;40.67;;;35.03;;
16804;SDS011;8520;50.102;20.010;2023-03-03T15:34:42;42.10;;;35.37;;
16804;SDS011;8520;50.102;20.010;2023-03-03T15:37:20;41.83;;;35.50;;
16804;SDS011;8520;50.102;20.010;2023-03-03T15:40:02;44.93;;;36.40;;
16804;SDS011;8520;50.102;20.010;2023-03-03T15:42:39;41.43;;;34.93;;
16804;SDS011;8520;50.102;20.010;2023-03-03T15:45:16;44.07;;;34.87;;
16804;SDS011;8520;50.102;20.010;2023-03-03T15:47:58;43.47;;;35.57;;
16804;SDS011;8520;50.102;20.010;2023-03-03T15:50:42;42.40;;;34.83;;